Washington, DC (20097)

1:50 PM EDT on September 22, 2014 (GMT -0400)
Capitol Hill, Washington, DC USA | Change Station
CLOSE
Current Station
Personal Weather Station
Location: Washington, DC
Elevation: 92 ft
Nearby Weather Stations

Elev 92 ft 38.89 °N, 76.99 °W | Updated 7 minutes ago

Scattered Clouds
Scattered Clouds
71.8 °F
Feels Like 77 °F
N
3.0
Wind Variable Wind from NNW

Today
High -- | Low -- °F
--% Chance of Precip.
Yesterday
High -- | Low -- °F
Precip. -- in
6:55 AM 7:05 PM
Waning Crescent, 2% visible
Pressure 30.04 in
Visibility 10.0 miles
Clouds Few 5000 ft
Scattered Clouds 25000 ft
Heat Index 77 °F
Dew Point 55 °F
Humidity 55%
Rainfall 0.00 in
Snow Depth Not available.
UV 6 out of 12
Pollen 4.80 out of 12
Air Quality Not available.
Flu Activity Not available.
METAR KDCA 221652Z 31016G19KT 10SM FEW050 SCT250 23/07 A3004 RMK AO2 PK WND 33026/1632 SLP172 T02280072

More Conditions Fewer Conditions

Pressure 30.04 in
Visibility 10.0 miles
Clouds Few 5000 ft
Scattered Clouds 25000 ft
Heat Index 77 °F
Dew Point 55 °F
Humidity 55%
Rainfall 0.00 in
Snow Depth Not available.
UV 6 out of 12
Pollen 4.80 out of 12
Air Quality Not available.
Flu Activity Not available.
METAR KDCA 221652Z 31016G19KT 10SM FEW050 SCT250 23/07 A3004 RMK AO2 PK WND 33026/1632 SLP172 T02280072

More Conditions Fewer Conditions

10-Day Weather Forecast

Almanac

Astronomy

Sep. 22, 2014 Rise Set
Actual Time 6:55 AM EDT 7:05 PM EDT
Civil Twilight 6:29 AM EDT 7:31 PM EDT
Nautical Twilight 5:57 AM EDT 8:02 PM EDT
Astronomical Twilight 5:26 AM EDT 8:34 PM EDT
Moon 5:23 AM EDT 6:11 PM EDT
Length of Visible Light 13h 02m
Length of Day
12h 09m
Tomorrow will be 2m 31s shorter.
Waning Crescent, 2% of the Moon is Illuminated
Today
Waning Crescent
Sep 24
New
Oct 1
First Quarter
Oct 8
Full
Oct 15
Last Quarter

Today's Extremes

State Highs State Lows

Community

WunderPhotos

Upload Photos

1,755,494 photos uploaded!

WunderBlogs® & News

Nearby

Snow Depth

Station Depth Elevation
No new snow has been reported.

Earthquake Activity

City Distance Mag. Time & Date
No recent earthquake activity has been reported nearby.
Minimum magnitude displayed is 2.5.

Coastal Water Temperatures

Place Temperature
Washington, DC 73.9 °F
Baltimore, MD 75.9 °F
Solomons Island, MD 75.0 °F

Nearby Weather Stations